sensor_id;sensor_type;location;lat;lon;timestamp;pressure;altitude;pressure_sealevel;temperature;humidity
56052;BME280;41919;42.648;23.384;2023-03-19T12:46:26;94821.00;;;15.86;27.76
56052;BME280;41919;42.648;23.384;2023-03-19T12:51:26;94748.56;;;15.53;27.65
56052;BME280;41919;42.648;23.384;2023-03-19T12:59:15;94825.41;;;16.33;27.31
56052;BME280;41919;42.648;23.384;2023-03-19T13:01:48;94735.50;;;15.82;27.42
56052;BME280;41919;42.648;23.384;2023-03-19T13:04:29;94801.13;;;16.19;28.05
56052;BME280;41919;42.648;23.384;2023-03-19T13:07:30;94802.63;;;16.15;27.99
56052;BME280;41919;42.648;23.384;2023-03-19T13:10:12;94735.88;;;15.74;27.77
56052;BME280;41919;42.648;23.384;2023-03-19T13:12:41;94799.50;;;16.30;27.73
56052;BME280;41919;42.648;23.384;2023-03-19T13:17:38;94799.63;;;16.23;28.17
56052;BME280;41919;42.648;23.384;2023-03-19T13:23:23;94736.03;;;16.07;28.16
56052;BME280;41919;42.648;23.384;2023-03-19T13:25:51;94720.00;;;16.09;27.91
56052;BME280;41919;42.648;23.384;2023-03-19T13:28:30;94784.53;;;16.47;27.66
56052;BME280;41919;42.648;23.384;2023-03-19T13:31:20;94763.75;;;16.51;27.09
56052;BME280;41919;42.648;23.384;2023-03-19T13:34:16;94780.81;;;16.60;27.68
56052;BME280;41919;42.648;23.384;2023-03-19T13:36:58;94758.81;;;16.54;27.94
56052;BME280;41919;42.648;23.384;2023-03-19T13:39:28;94654.94;;;15.98;27.91
56052;BME280;41919;42.648;23.384;2023-03-19T13:42:21;94721.66;;;16.27;28.49
56052;BME280;41919;42.648;23.384;2023-03-19T13:58:13;94759.44;;;16.73;28.44
56052;BME280;41919;42.648;23.384;2023-03-19T14:01:01;94757.44;;;16.80;28.10
56052;BME280;41919;42.648;23.384;2023-03-19T14:03:30;94759.63;;;16.83;27.92
56052;BME280;41919;42.648;23.384;2023-03-19T14:05:57;94695.78;;;16.41;27.41
56052;BME280;41919;42.648;23.384;2023-03-19T14:08:28;94687.25;;;16.51;27.17
56052;BME280;41919;42.648;23.384;2023-03-19T14:10:57;94747.88;;;16.91;27.38
56052;BME280;41919;42.648;23.384;2023-03-19T14:13:25;94699.81;;;16.60;27.50
56052;BME280;41919;42.648;23.384;2023-03-19T14:15:53;94734.00;;;16.96;27.25
56052;BME280;41919;42.648;23.384;2023-03-19T14:18:24;94694.69;;;16.82;27.27
56052;BME280;41919;42.648;23.384;2023-03-19T14:21:01;94738.41;;;17.07;27.41
56052;BME280;41919;42.648;23.384;2023-03-19T14:23:29;94743.69;;;17.07;27.49
56052;BME280;41919;42.648;23.384;2023-03-19T14:26:16;94741.41;;;17.16;27.01
56052;BME280;41919;42.648;23.384;2023-03-19T14:29:01;94743.88;;;16.89;27.36
56052;BME280;41919;42.648;23.384;2023-03-19T14:31:46;94719.03;;;16.56;27.49
56052;BME280;41919;42.648;23.384;2023-03-19T14:34:17;94741.91;;;16.67;27.86
56052;BME280;41919;42.648;23.384;2023-03-19T14:36:57;94685.69;;;16.21;27.77
56052;BME280;41919;42.648;23.384;2023-03-19T14:39:25;94674.50;;;16.02;28.13
56052;BME280;41919;42.648;23.384;2023-03-19T14:47:57;94686.47;;;16.21;28.12
56052;BME280;41919;42.648;23.384;2023-03-19T14:53:10;94724.72;;;16.64;27.86
56052;BME280;41919;42.648;23.384;2023-03-19T14:55:40;94724.13;;;16.45;27.69
56052;BME280;41919;42.648;23.384;2023-03-19T14:58:09;94724.28;;;16.27;28.35
56052;BME280;41919;42.648;23.384;2023-03-19T15:00:41;94627.44;;;15.41;28.23
56052;BME280;41919;42.648;23.384;2023-03-19T15:05:55;94691.97;;;15.67;29.01
56052;BME280;41919;42.648;23.384;2023-03-19T15:08:22;94647.00;;;15.45;28.97
56052;BME280;41919;42.648;23.384;2023-03-19T15:18:35;94678.81;;;15.67;28.38
56052;BME280;41919;42.648;23.384;2023-03-19T15:21:02;94689.34;;;15.79;28.80
56052;BME280;41919;42.648;23.384;2023-03-19T15:23:28;94673.78;;;15.66;28.96
56052;BME280;41919;42.648;23.384;2023-03-19T15:26:00;94664.75;;;15.50;29.01
56052;BME280;41919;42.648;23.384;2023-03-19T15:28:31;94697.13;;;15.62;29.19
56052;BME280;41919;42.648;23.384;2023-03-19T15:31:00;94694.97;;;15.59;29.65
56052;BME280;41919;42.648;23.384;2023-03-19T15:33:37;94751.91;;;15.96;33.79
56052;BME280;41919;42.648;23.384;2023-03-19T15:36:23;94743.06;;;16.02;28.93
56052;BME280;41919;42.648;23.384;2023-03-19T15:41:23;94674.72;;;15.48;28.99
56052;BME280;41919;42.648;23.384;2023-03-19T15:43:50;94718.44;;;15.73;28.83
56052;BME280;41919;42.648;23.384;2023-03-19T15:46:20;94736.00;;;15.79;29.37
56052;BME280;41919;42.648;23.384;2023-03-19T15:48:57;94751.22;;;15.77;29.55
56052;BME280;41919;42.648;23.384;2023-03-19T15:51:27;94674.03;;;15.41;29.33
56052;BME280;41919;42.648;23.384;2023-03-19T15:53:54;94724.03;;;15.64;29.01
56052;BME280;41919;42.648;23.384;2023-03-19T15:56:20;94692.22;;;15.54;29.28
56052;BME280;41919;42.648;23.384;2023-03-19T15:58:50;94687.31;;;15.46;28.96
56052;BME280;41919;42.648;23.384;2023-03-19T16:01:17;94747.88;;;15.81;29.34
56052;BME280;41919;42.648;23.384;2023-03-19T16:04:04;94743.56;;;15.75;29.13
56052;BME280;41919;42.648;23.384;2023-03-19T16:06:39;94728.66;;;15.57;29.54
56052;BME280;41919;42.648;23.384;2023-03-19T16:09:16;94752.47;;;15.62;29.30
56052;BME280;41919;42.648;23.384;2023-03-19T16:11:45;94740.56;;;15.48;29.55
56052;BME280;41919;42.648;23.384;2023-03-19T16:16:40;94687.09;;;15.12;30.15
56052;BME280;41919;42.648;23.384;2023-03-19T16:21:54;94743.50;;;15.16;30.69
56052;BME280;41919;42.648;23.384;2023-03-19T16:24:30;94740.38;;;14.96;31.14
56052;BME280;41919;42.648;23.384;2023-03-19T16:27:03;94693.03;;;14.54;31.47
56052;BME280;41919;42.648;23.384;2023-03-19T16:29:37;94692.66;;;14.38;31.45
56052;BME280;41919;42.648;23.384;2023-03-19T16:34:51;94768.06;;;14.56;32.05
56052;BME280;41919;42.648;23.384;2023-03-19T16:47:40;94683.34;;;13.57;33.23
56052;BME280;41919;42.648;23.384;2023-03-19T16:50:06;94760.59;;;14.04;33.50
56052;BME280;41919;42.648;23.384;2023-03-19T16:52:32;94744.84;;;13.86;33.91
56052;BME280;41919;42.648;23.384;2023-03-19T16:54:59;94760.91;;;13.96;33.58
56052;BME280;41919;42.648;23.384;2023-03-19T16:57:25;94692.34;;;13.42;33.62
56052;BME280;41919;42.648;23.384;2023-03-19T16:59:51;94711.63;;;13.55;34.18
56052;BME280;41919;42.648;23.384;2023-03-19T17:02:17;94750.59;;;13.76;34.37
56052;BME280;41919;42.648;23.384;2023-03-19T17:04:44;94706.91;;;13.45;34.68
56052;BME280;41919;42.648;23.384;2023-03-19T17:07:10;94721.84;;;13.44;35.16
56052;BME280;41919;42.648;23.384;2023-03-19T17:09:36;94734.28;;;13.30;35.72
56052;BME280;41919;42.648;23.384;2023-03-19T17:12:03;94787.56;;;13.56;35.53
56052;BME280;41919;42.648;23.384;2023-03-19T17:14:29;94714.34;;;12.98;35.77
56052;BME280;41919;42.648;23.384;2023-03-19T17:16:56;94781.63;;;13.42;36.53
56052;BME280;41919;42.648;23.384;2023-03-19T17:19:25;94701.47;;;12.39;37.88
56052;BME280;41919;42.648;23.384;2023-03-19T17:21:54;94748.31;;;12.22;38.97
56052;BME280;41919;42.648;23.384;2023-03-19T17:24:24;94785.00;;;12.15;39.47
56052;BME280;41919;42.648;23.384;2023-03-19T17:26:51;94717.91;;;11.43;39.86
56052;BME280;41919;42.648;23.384;2023-03-19T17:29:17;94782.53;;;11.55;40.93
56052;BME280;41919;42.648;23.384;2023-03-19T17:31:45;94783.31;;;11.56;41.01
56052;BME280;41919;42.648;23.384;2023-03-19T17:34:15;94793.00;;;11.62;41.60
56052;BME280;41919;42.648;23.384;2023-03-19T17:36:49;94780.69;;;11.56;41.12
56052;BME280;41919;42.648;23.384;2023-03-19T17:39:15;94773.66;;;11.63;41.13
56052;BME280;41919;42.648;23.384;2023-03-19T17:41:41;94796.19;;;11.77;40.68
56052;BME280;41919;42.648;23.384;2023-03-19T17:44:06;94797.03;;;11.51;41.27
56052;BME280;41919;42.648;23.384;2023-03-19T17:46:36;94780.72;;;11.16;41.66
56052;BME280;41919;42.648;23.384;2023-03-19T17:49:03;94715.34;;;10.49;42.37
56052;BME280;41919;42.648;23.384;2023-03-19T17:51:28;94737.81;;;10.37;42.68
56052;BME280;41919;42.648;23.384;2023-03-19T17:53:56;94815.88;;;10.67;43.16
56052;BME280;41919;42.648;23.384;2023-03-19T17:56:23;94737.69;;;10.04;43.44
56052;BME280;41919;42.648;23.384;2023-03-19T17:58:52;94812.81;;;10.56;43.16
56052;BME280;41919;42.648;23.384;2023-03-19T18:01:20;94724.44;;;10.05;42.62
56052;BME280;41919;42.648;23.384;2023-03-19T18:03:50;94829.16;;;10.65;42.65
56052;BME280;41919;42.648;23.384;2023-03-19T18:06:19;94758.63;;;10.24;42.00
56052;BME280;41919;42.648;23.384;2023-03-19T18:08:45;94818.06;;;10.56;41.98
56052;BME280;41919;42.648;23.384;2023-03-19T18:11:11;94780.81;;;10.41;41.60
56052;BME280;41919;42.648;23.384;2023-03-19T18:13:37;94722.44;;;10.07;41.73
56052;BME280;41919;42.648;23.384;2023-03-19T18:16:04;94738.16;;;10.20;41.33
56052;BME280;41919;42.648;23.384;2023-03-19T18:18:36;94723.47;;;10.13;41.58
56052;BME280;41919;42.648;23.384;2023-03-19T18:21:01;94826.94;;;10.75;41.39
56052;BME280;41919;42.648;23.384;2023-03-19T18:23:26;94825.94;;;10.70;41.84
56052;BME280;41919;42.648;23.384;2023-03-19T18:25:52;94817.66;;;10.59;42.33
56052;BME280;41919;42.648;23.384;2023-03-19T18:28:18;94828.91;;;10.53;42.49
56052;BME280;41919;42.648;23.384;2023-03-19T18:30:43;94623.88;;;9.06;43.36
56052;BME280;41919;42.648;23.384;2023-03-19T18:33:14;94756.88;;;9.82;43.31
56052;BME280;41919;42.648;23.384;2023-03-19T18:35:41;94762.28;;;9.74;43.96
56052;BME280;41919;42.648;23.384;2023-03-19T18:38:17;94832.13;;;10.07;44.37
56052;BME280;41919;42.648;23.384;2023-03-19T18:40:43;94776.06;;;9.68;43.88
56052;BME280;41919;42.648;23.384;2023-03-19T18:43:09;94761.81;;;9.64;44.09
56052;BME280;41919;42.648;23.384;2023-03-19T18:45:36;94845.81;;;10.16;43.96
56052;BME280;41919;42.648;23.384;2023-03-19T18:48:15;94788.94;;;9.70;44.52
56052;BME280;41919;42.648;23.384;2023-03-19T18:50:41;94778.00;;;9.53;44.42
56052;BME280;41919;42.648;23.384;2023-03-19T18:53:08;94782.16;;;9.47;44.40
56052;BME280;41919;42.648;23.384;2023-03-19T18:55:35;94863.38;;;9.94;44.41
56052;BME280;41919;42.648;23.384;2023-03-19T18:58:01;94862.09;;;9.83;44.86
56052;BME280;41919;42.648;23.384;2023-03-19T19:00:29;94870.16;;;9.88;45.22
56052;BME280;41919;42.648;23.384;2023-03-19T19:02:57;94874.09;;;9.77;45.35
56052;BME280;41919;42.648;23.384;2023-03-19T19:05:25;94799.44;;;9.20;45.95
56052;BME280;41919;42.648;23.384;2023-03-19T19:07:56;94869.84;;;9.41;46.70
56052;BME280;41919;42.648;23.384;2023-03-19T19:10:23;94870.47;;;9.22;47.47
56052;BME280;41919;42.648;23.384;2023-03-19T19:12:51;94883.28;;;9.17;48.31
56052;BME280;41919;42.648;23.384;2023-03-19T19:15:34;94877.78;;;8.90;49.23
56052;BME280;41919;42.648;23.384;2023-03-19T19:18:07;94805.34;;;8.28;50.06
56052;BME280;41919;42.648;23.384;2023-03-19T19:20:37;94876.00;;;8.54;50.82
56052;BME280;41919;42.648;23.384;2023-03-19T19:23:02;94785.38;;;7.83;51.38
56052;BME280;41919;42.648;23.384;2023-03-19T19:25:28;94845.25;;;8.13;51.58
56052;BME280;41919;42.648;23.384;2023-03-19T19:28:00;94816.50;;;7.92;51.91
56052;BME280;41919;42.648;23.384;2023-03-19T19:30:26;94824.41;;;7.83;52.00
56052;BME280;41919;42.648;23.384;2023-03-19T19:32:52;94899.97;;;8.35;51.31
56052;BME280;41919;42.648;23.384;2023-03-19T19:35:23;94876.28;;;8.30;51.19
56052;BME280;41919;42.648;23.384;2023-03-19T19:37:50;94816.63;;;7.98;50.84
56052;BME280;41919;42.648;23.384;2023-03-19T19:40:18;94797.88;;;7.88;50.65
56052;BME280;41919;42.648;23.384;2023-03-19T19:42:45;94798.13;;;7.93;50.47
56052;BME280;41919;42.648;23.384;2023-03-19T19:45:24;94892.38;;;8.48;50.39
56052;BME280;41919;42.648;23.384;2023-03-19T19:47:50;94810.78;;;7.96;50.48
56052;BME280;41919;42.648;23.384;2023-03-19T19:50:17;94891.75;;;8.46;50.58
56052;BME280;41919;42.648;23.384;2023-03-19T19:52:43;94885.00;;;8.52;50.07
56052;BME280;41919;42.648;23.384;2023-03-19T19:55:09;94789.25;;;7.88;50.10
56052;BME280;41919;42.648;23.384;2023-03-19T19:57:37;94843.88;;;8.17;50.09
56052;BME280;41919;42.648;23.384;2023-03-19T20:00:03;94885.53;;;8.47;49.92
56052;BME280;41919;42.648;23.384;2023-03-19T20:02:28;94802.69;;;7.91;50.15
56052;BME280;41919;42.648;23.384;2023-03-19T20:04:55;94878.88;;;8.30;49.92
56052;BME280;41919;42.648;23.384;2023-03-19T20:07:21;94873.84;;;8.28;50.19
56052;BME280;41919;42.648;23.384;2023-03-19T20:09:47;94882.03;;;8.40;51.30
56052;BME280;41919;42.648;23.384;2023-03-19T20:12:21;94890.72;;;8.62;49.55
56052;BME280;41919;42.648;23.384;2023-03-19T20:14:48;94826.91;;;7.92;49.49
56052;BME280;41919;42.648;23.384;2023-03-19T20:17:15;94841.63;;;8.14;50.41
56052;BME280;41919;42.648;23.384;2023-03-19T20:19:41;94788.44;;;7.72;50.96
56052;BME280;41919;42.648;23.384;2023-03-19T20:22:07;94884.09;;;8.15;51.22
56052;BME280;41919;42.648;23.384;2023-03-19T20:24:32;94838.78;;;7.79;51.48
56052;BME280;41919;42.648;23.384;2023-03-19T20:26:57;94907.63;;;8.21;51.60
56052;BME280;41919;42.648;23.384;2023-03-19T20:29:27;94819.22;;;7.54;51.97
56052;BME280;41919;42.648;23.384;2023-03-19T20:31:56;94903.59;;;8.04;52.21
56052;BME280;41919;42.648;23.384;2023-03-19T20:34:22;94838.50;;;7.59;52.49
56052;BME280;41919;42.648;23.384;2023-03-19T20:36:47;94920.78;;;8.05;52.68
56052;BME280;41919;42.648;23.384;2023-03-19T20:39:13;94918.28;;;7.97;52.97
56052;BME280;41919;42.648;23.384;2023-03-19T20:41:38;94932.56;;;8.01;52.93
56052;BME280;41919;42.648;23.384;2023-03-19T20:44:04;94938.75;;;8.00;53.09
56052;BME280;41919;42.648;23.384;2023-03-19T20:46:30;94929.94;;;8.01;53.31
56052;BME280;41919;42.648;23.384;2023-03-19T20:48:56;94926.28;;;7.95;53.24
56052;BME280;41919;42.648;23.384;2023-03-19T20:51:23;94925.19;;;7.90;53.37
56052;BME280;41919;42.648;23.384;2023-03-19T20:53:51;94867.81;;;7.38;54.09
56052;BME280;41919;42.648;23.384;2023-03-19T20:56:19;94924.78;;;7.63;54.73
56052;BME280;41919;42.648;23.384;2023-03-19T20:58:45;94856.81;;;7.28;54.67
56052;BME280;41919;42.648;23.384;2023-03-19T21:01:11;94870.44;;;7.30;56.56
56052;BME280;41919;42.648;23.384;2023-03-19T21:03:37;94851.53;;;7.21;55.97
56052;BME280;41919;42.648;23.384;2023-03-19T21:06:04;94867.75;;;7.23;57.49
56052;BME280;41919;42.648;23.384;2023-03-19T21:08:37;94932.78;;;7.61;57.10
56052;BME280;41919;42.648;23.384;2023-03-19T21:11:03;94888.88;;;7.43;58.97
56052;BME280;41919;42.648;23.384;2023-03-19T21:13:29;94944.31;;;7.97;58.54
56052;BME280;41919;42.648;23.384;2023-03-19T21:15:56;94938.97;;;8.13;55.21
56052;BME280;41919;42.648;23.384;2023-03-19T21:18:21;94935.25;;;8.22;54.15
56052;BME280;41919;42.648;23.384;2023-03-19T21:20:52;94884.78;;;7.94;53.53
56052;BME280;41919;42.648;23.384;2023-03-19T21:23:34;94898.44;;;8.11;53.15
56052;BME280;41919;42.648;23.384;2023-03-19T21:26:14;94939.78;;;8.43;52.99
56052;BME280;41919;42.648;23.384;2023-03-19T21:28:40;94928.44;;;8.36;52.56
56052;BME280;41919;42.648;23.384;2023-03-19T21:31:15;94921.88;;;8.25;52.52
56052;BME280;41919;42.648;23.384;2023-03-19T21:33:45;94870.25;;;7.99;52.50
56052;BME280;41919;42.648;23.384;2023-03-19T21:36:12;94882.59;;;8.05;52.43
56052;BME280;41919;42.648;23.384;2023-03-19T21:38:39;94935.97;;;8.31;52.18
56052;BME280;41919;42.648;23.384;2023-03-19T21:41:10;94936.53;;;8.12;51.77
56052;BME280;41919;42.648;23.384;2023-03-19T21:46:09;94940.00;;;7.51;54.37
56052;BME280;41919;42.648;23.384;2023-03-19T21:48:36;94932.38;;;7.26;55.55
56052;BME280;41919;42.648;23.384;2023-03-19T21:51:04;94942.09;;;7.33;55.61
56052;BME280;41919;42.648;23.384;2023-03-19T21:53:30;94949.72;;;7.34;55.68
56052;BME280;41919;42.648;23.384;2023-03-19T21:55:57;94947.25;;;7.41;55.32
56052;BME280;41919;42.648;23.384;2023-03-19T21:58:33;94861.06;;;6.83;55.93
56052;BME280;41919;42.648;23.384;2023-03-19T22:01:01;94882.44;;;6.93;56.45
56052;BME280;41919;42.648;23.384;2023-03-19T22:03:27;94903.91;;;7.10;56.89
56052;BME280;41919;42.648;23.384;2023-03-19T22:05:53;94937.72;;;7.33;57.04
56052;BME280;41919;42.648;23.384;2023-03-19T22:08:21;94918.88;;;7.31;56.86
56052;BME280;41919;42.648;23.384;2023-03-19T22:10:53;94884.38;;;7.14;56.94
56052;BME280;41919;42.648;23.384;2023-03-19T22:13:21;94920.94;;;7.36;56.73
56052;BME280;41919;42.648;23.384;2023-03-19T22:15:48;94907.53;;;7.24;56.78
56052;BME280;41919;42.648;23.384;2023-03-19T22:18:15;94849.06;;;6.82;57.05
56052;BME280;41919;42.648;23.384;2023-03-19T22:20:42;94843.91;;;6.74;57.36
56052;BME280;41919;42.648;23.384;2023-03-19T22:23:09;94939.22;;;7.28;57.54
56052;BME280;41919;42.648;23.384;2023-03-19T22:25:36;94922.41;;;7.15;57.71
56052;BME280;41919;42.648;23.384;2023-03-19T22:28:30;94938.81;;;7.16;57.66
56052;BME280;41919;42.648;23.384;2023-03-19T22:30:57;94851.06;;;6.72;57.26
56052;BME280;41919;42.648;23.384;2023-03-19T22:33:24;94847.16;;;6.76;56.87
56052;BME280;41919;42.648;23.384;2023-03-19T22:35:51;94926.84;;;7.30;56.93
56052;BME280;41919;42.648;23.384;2023-03-19T22:38:18;94927.19;;;7.26;57.20
56052;BME280;41919;42.648;23.384;2023-03-19T22:40:46;94920.63;;;7.16;57.51
56052;BME280;41919;42.648;23.384;2023-03-19T22:43:30;94843.69;;;6.60;57.70
56052;BME280;41919;42.648;23.384;2023-03-19T22:46:08;94913.91;;;6.98;58.43
56052;BME280;41919;42.648;23.384;2023-03-19T22:48:34;94917.13;;;7.00;58.31
56052;BME280;41919;42.648;23.384;2023-03-19T22:51:02;94909.59;;;6.82;59.22
56052;BME280;41919;42.648;23.384;2023-03-19T22:53:30;94919.19;;;6.82;59.24
56052;BME280;41919;42.648;23.384;2023-03-19T22:55:57;94928.63;;;6.75;59.50
56052;BME280;41919;42.648;23.384;2023-03-19T22:58:23;94919.56;;;6.79;59.64
56052;BME280;41919;42.648;23.384;2023-03-19T23:00:49;94815.91;;;6.06;59.94
56052;BME280;41919;42.648;23.384;2023-03-19T23:03:20;94919.41;;;6.72;60.02
56052;BME280;41919;42.648;23.384;2023-03-19T23:06:02;94922.84;;;6.64;60.09
56052;BME280;41919;42.648;23.384;2023-03-19T23:08:29;94840.00;;;6.15;60.65
56052;BME280;41919;42.648;23.384;2023-03-19T23:10:54;94897.69;;;6.34;61.22
56052;BME280;41919;42.648;23.384;2023-03-19T23:13:21;94912.63;;;6.32;61.43
56052;BME280;41919;42.648;23.384;2023-03-19T23:15:48;94844.66;;;5.80;61.78
56052;BME280;41919;42.648;23.384;2023-03-19T23:18:35;94843.06;;;5.79;61.94
56052;BME280;41919;42.648;23.384;2023-03-19T23:21:01;94935.47;;;6.36;61.31
56052;BME280;41919;42.648;23.384;2023-03-19T23:23:27;94919.09;;;6.36;61.11
56052;BME280;41919;42.648;23.384;2023-03-19T23:25:53;94928.94;;;6.48;60.85
56052;BME280;41919;42.648;23.384;2023-03-19T23:28:22;94880.84;;;6.30;60.29
56052;BME280;41919;42.648;23.384;2023-03-19T23:30:50;94923.44;;;6.75;59.77
56052;BME280;41919;42.648;23.384;2023-03-19T23:33:17;94924.63;;;6.95;59.05
56052;BME280;41919;42.648;23.384;2023-03-19T23:35:44;94896.16;;;6.79;58.65
56052;BME280;41919;42.648;23.384;2023-03-19T23:38:10;94917.13;;;7.00;58.21
56052;BME280;41919;42.648;23.384;2023-03-19T23:40:37;94847.25;;;6.59;58.09
56052;BME280;41919;42.648;23.384;2023-03-19T23:43:06;94914.16;;;7.12;57.76
56052;BME280;41919;42.648;23.384;2023-03-19T23:45:41;94863.44;;;6.93;57.21
56052;BME280;41919;42.648;23.384;2023-03-19T23:48:14;94923.03;;;7.40;57.01
56052;BME280;41919;42.648;23.384;2023-03-19T23:50:40;94858.94;;;7.10;56.90
56052;BME280;41919;42.648;23.384;2023-03-19T23:53:18;94841.38;;;7.12;56.65
56052;BME280;41919;42.648;23.384;2023-03-19T23:55:47;94812.28;;;6.93;56.47
56052;BME280;41919;42.648;23.384;2023-03-19T23:58:14;94910.84;;;7.41;56.69
